Time;durP1;ratioP1;P1;durP2;ratioP2;P2;SDS_P1;SDS_P2;PMS_P1;PMS_P2;Temp;Humidity;BMP_temperature;BMP_pressure;BME280_temperature;BME280_humidity;BME280_pressure;Samples;Min_cycle;Max_cycle;Signal;HPM_P1;HPM_P2
2023/11/25 00:01:47;;;;;;;2.03;0.87;;;5.00;99.90;;;;;;4955280;29;20465;-75
2023/11/25 00:04:13;;;;;;;11.23;4.23;;;5.00;99.90;;;;;;4956008;29;20058;-73
2023/11/25 00:06:39;;;;;;;5.27;2.17;;;5.00;99.90;;;;;;4960786;28;20058;-73
2023/11/25 00:09:04;;;;;;;3.40;1.17;;;5.00;99.90;;;;;;4956169;29;20023;-73
2023/11/25 00:11:30;;;;;;;3.07;0.93;;;5.00;99.90;;;;;;4955602;29;20023;-73
2023/11/25 00:13:56;;;;;;;5.37;0.90;;;5.00;99.90;;;;;;4956183;29;20480;-80
2023/11/25 00:16:21;;;;;;;1.80;0.80;;;5.00;99.90;;;;;;4955505;29;20029;-73
2023/11/25 00:18:48;;;;;;;5.03;0.90;;;5.10;99.90;;;;;;4944804;29;20046;-73
2023/11/25 00:21:13;;;;;;;2.80;1.07;;;5.10;99.90;;;;;;4952544;29;20447;-73
2023/11/25 00:23:39;;;;;;;2.17;0.70;;;5.10;99.90;;;;;;4936626;29;20032;-72
2023/11/25 00:26:04;;;;;;;3.93;0.73;;;5.10;99.90;;;;;;4919507;29;20118;-74
2023/11/25 00:28:31;;;;;;;2.27;0.53;;;5.20;99.90;;;;;;4920884;29;20040;-73
2023/11/25 00:30:56;;;;;;;1.50;0.80;;;5.20;99.90;;;;;;4922331;29;20075;-78
2023/11/25 00:33:22;;;;;;;2.40;0.60;;;5.30;99.90;;;;;;4919875;29;20507;-73
2023/11/25 00:35:48;;;;;;;1.33;0.60;;;5.30;99.90;;;;;;4919703;29;20551;-73
2023/11/25 00:38:14;;;;;;;2.13;0.73;;;5.20;99.90;;;;;;4919227;29;20118;-73
2023/11/25 00:40:39;;;;;;;1.43;0.50;;;5.10;99.90;;;;;;4920112;29;20035;-73
2023/11/25 00:43:06;;;;;;;2.00;0.70;;;5.10;99.90;;;;;;4919069;29;20028;-72
2023/11/25 00:45:31;;;;;;;2.83;0.50;;;5.10;99.90;;;;;;4935652;29;20483;-73
2023/11/25 00:47:58;;;;;;;2.33;0.60;;;5.00;99.90;;;;;;4919007;29;20027;-73
2023/11/25 00:50:24;;;;;;;4.20;0.67;;;5.00;99.90;;;;;;4936862;29;20027;-73
2023/11/25 00:52:50;;;;;;;3.23;1.20;;;5.00;99.90;;;;;;4928706;29;20039;-72
2023/11/25 00:55:16;;;;;;;4.40;0.63;;;4.90;99.90;;;;;;4919346;29;20031;-73
2023/11/25 00:57:41;;;;;;;5.97;0.60;;;5.00;99.90;;;;;;4919524;29;20035;-72
2023/11/25 01:00:15;;;;;;;1.30;0.70;;;4.90;99.90;;;;;;4936145;29;20174;-73
2023/11/25 01:02:42;;;;;;;2.47;0.70;;;4.90;99.90;;;;;;4919428;29;20028;-72
2023/11/25 01:05:08;;;;;;;2.77;1.50;;;4.90;99.90;;;;;;4918829;29;20027;-73
2023/11/25 01:07:34;;;;;;;8.57;2.20;;;4.90;99.90;;;;;;4919388;29;20507;-74
2023/11/25 01:09:59;;;;;;;7.53;1.50;;;4.90;99.90;;;;;;4918950;29;20051;-74
2023/11/25 01:12:25;;;;;;;3.70;1.10;;;4.80;99.90;;;;;;4919457;29;20099;-73
2023/11/25 01:14:50;;;;;;;4.67;1.70;;;4.80;99.90;;;;;;4919324;29;20048;-73
2023/11/25 01:17:16;;;;;;;2.53;1.03;;;4.80;99.90;;;;;;4918706;29;20465;-73
2023/11/25 01:19:42;;;;;;;3.37;0.90;;;4.80;99.90;;;;;;4923994;29;20028;-73
2023/11/25 01:22:07;;;;;;;2.80;0.87;;;4.80;99.90;;;;;;4918249;29;20074;-73
2023/11/25 01:24:33;;;;;;;5.30;1.13;;;4.80;99.90;;;;;;4935502;29;20035;-73
2023/11/25 01:26:59;;;;;;;4.33;0.60;;;4.70;99.90;;;;;;4918649;29;20038;-73
2023/11/25 01:29:24;;;;;;;7.00;0.90;;;4.70;99.90;;;;;;4936210;29;20028;-73
2023/11/25 01:31:50;;;;;;;2.63;0.60;;;4.80;99.90;;;;;;4936074;29;20078;-72
2023/11/25 01:34:15;;;;;;;1.10;0.70;;;4.70;99.90;;;;;;4935384;29;20211;-73
2023/11/25 01:36:41;;;;;;;1.50;0.60;;;4.70;99.90;;;;;;4918916;29;20027;-73
2023/11/25 01:39:06;;;;;;;2.63;0.60;;;4.80;99.90;;;;;;4935443;29;20091;-72
2023/11/25 01:41:32;;;;;;;2.83;0.60;;;4.80;99.90;;;;;;4918863;29;20047;-72
2023/11/25 01:43:59;;;;;;;3.07;0.60;;;4.80;99.90;;;;;;4917720;29;20488;-73
2023/11/25 01:46:37;;;;;;;3.33;0.87;;;4.80;99.90;;;;;;4935679;29;20020;-72
2023/11/25 01:49:09;;;;;;;2.93;0.70;;;4.70;99.90;;;;;;4935027;29;20024;-73
2023/11/25 01:51:40;;;;;;;2.05;0.90;;;4.70;99.90;;;;;;4946678;29;20032;-73
2023/11/25 01:54:06;;;;;;;4.87;1.33;;;4.70;99.90;;;;;;4934927;29;20468;-73
2023/11/25 01:56:33;;;;;;;5.20;0.60;;;4.70;99.90;;;;;;4918230;29;20090;-73
2023/11/25 01:59:01;;;;;;;3.97;0.50;;;4.70;99.90;;;;;;4920495;29;20040;-73
2023/11/25 02:01:28;;;;;;;2.83;0.53;;;4.70;99.90;;;;;;4918684;29;20031;-73
2023/11/25 02:03:57;;;;;;;3.50;0.60;;;4.70;99.90;;;;;;4935233;29;20047;-76
2023/11/25 02:06:23;;;;;;;2.10;0.53;;;4.70;99.90;;;;;;4925490;29;20091;-74
2023/11/25 02:08:50;;;;;;;3.63;0.83;;;4.60;99.90;;;;;;4935570;29;20024;-73
2023/11/25 02:11:16;;;;;;;2.67;0.53;;;4.70;99.90;;;;;;4935126;29;20932;-73
2023/11/25 02:13:41;;;;;;;0.93;0.30;;;4.70;99.90;;;;;;4930947;29;20529;-73
2023/11/25 02:16:10;;;;;;;2.73;0.60;;;4.70;99.90;;;;;;4904306;29;20032;-74
2023/11/25 02:18:37;;;;;;;2.43;0.80;;;4.70;99.90;;;;;;4914585;29;20082;-74
2023/11/25 02:21:02;;;;;;;2.07;0.40;;;4.70;99.90;;;;;;4929631;29;20027;-75
2023/11/25 02:23:31;;;;;;;3.40;0.83;;;4.70;99.90;;;;;;4948702;28;20480;-74
2023/11/25 02:25:57;;;;;;;2.60;0.80;;;4.70;99.90;;;;;;4945299;28;20031;-85
2023/11/25 02:28:23;;;;;;;1.77;0.60;;;4.70;99.90;;;;;;4947786;28;20038;-75
2023/11/25 02:30:49;;;;;;;2.07;0.60;;;4.70;99.90;;;;;;4945161;28;20365;-74
2023/11/25 02:33:16;;;;;;;2.07;0.60;;;4.70;99.90;;;;;;4964560;28;20023;-74
2023/11/25 02:35:47;;;;;;;2.63;0.60;;;4.70;99.90;;;;;;4956558;28;20117;-74
2023/11/25 02:38:14;;;;;;;3.58;0.77;;;4.70;99.90;;;;;;4964606;28;20448;-74
2023/11/25 02:40:43;;;;;;;1.23;0.70;;;4.70;99.90;;;;;;4954762;29;20039;-74
2023/11/25 02:43:11;;;;;;;5.57;1.20;;;4.70;99.90;;;;;;4954308;29;20449;-74
2023/11/25 02:45:37;;;;;;;3.80;0.70;;;4.70;99.90;;;;;;4969456;28;20032;-74
2023/11/25 02:48:07;;;;;;;3.10;0.80;;;4.80;99.90;;;;;;4936979;29;20496;-74
2023/11/25 02:50:33;;;;;;;4.77;1.30;;;4.80;99.90;;;;;;4969534;28;20402;-74
2023/11/25 02:52:59;;;;;;;1.77;0.70;;;4.80;99.90;;;;;;4936960;29;20130;-76
2023/11/25 02:55:25;;;;;;;5.10;1.23;;;4.80;99.90;;;;;;4969393;28;20038;-74
2023/11/25 02:57:52;;;;;;;4.53;1.40;;;4.70;99.90;;;;;;4937317;29;20039;-74
2023/11/25 03:00:33;;;;;;;3.60;1.20;;;4.70;99.90;;;;;;4954213;29;20031;-74
2023/11/25 03:03:07;;;;;;;4.77;1.30;;;4.60;99.90;;;;;;4954447;29;20019;-84
2023/11/25 03:05:33;;;;;;;2.83;1.13;;;4.60;99.90;;;;;;4969380;28;20151;-74
2023/11/25 03:08:00;;;;;;;1.93;0.90;;;4.60;99.90;;;;;;4954159;28;20120;-74
2023/11/25 03:10:30;;;;;;;3.33;0.70;;;4.60;99.90;;;;;;4957940;29;20095;-74
2023/11/25 03:12:55;;;;;;;5.63;0.80;;;4.60;99.90;;;;;;4972979;28;20024;-74
2023/11/25 03:15:21;;;;;;;3.10;0.70;;;4.50;99.90;;;;;;4972551;28;20038;-74
2023/11/25 03:17:47;;;;;;;5.47;0.73;;;4.40;99.90;;;;;;4958015;29;20038;-74
2023/11/25 03:20:13;;;;;;;3.70;0.90;;;4.40;99.90;;;;;;4972318;28;20039;-74
2023/11/25 03:22:39;;;;;;;1.87;0.50;;;4.30;99.90;;;;;;4960207;28;20519;-74
2023/11/25 03:25:05;;;;;;;4.00;0.87;;;4.30;99.90;;;;;;4921288;29;20028;-74
2023/11/25 03:27:31;;;;;;;1.60;0.60;;;4.30;99.90;;;;;;4938774;29;20023;-74
2023/11/25 03:30:00;;;;;;;1.20;0.50;;;4.30;99.90;;;;;;4938753;29;20023;-74
2023/11/25 03:32:25;;;;;;;4.90;0.70;;;4.30;99.90;;;;;;4921630;29;20032;-74
2023/11/25 03:34:55;;;;;;;13.30;5.63;;;4.30;99.90;;;;;;4921646;29;20481;-74
2023/11/25 03:37:21;;;;;;;6.93;2.90;;;4.30;99.90;;;;;;4920910;29;20043;-74
2023/11/25 03:39:47;;;;;;;3.80;1.20;;;4.30;99.90;;;;;;4938602;29;20051;-74
2023/11/25 03:42:12;;;;;;;2.17;0.90;;;4.40;99.90;;;;;;4920979;29;20063;-74
2023/11/25 03:44:38;;;;;;;2.90;1.10;;;4.40;99.90;;;;;;4921094;29;20028;-74
2023/11/25 03:47:03;;;;;;;2.67;0.70;;;4.30;99.90;;;;;;4920930;29;20035;-74
2023/11/25 03:49:30;;;;;;;2.87;0.70;;;4.30;99.90;;;;;;4921294;29;20114;-74
2023/11/25 03:51:55;;;;;;;3.57;0.73;;;4.30;99.90;;;;;;4921128;29;20059;-74
2023/11/25 03:54:21;;;;;;;5.50;1.60;;;4.20;99.90;;;;;;4920767;29;20358;-74
2023/11/25 03:56:47;;;;;;;11.27;3.63;;;4.20;99.90;;;;;;4921026;29;20440;-74
2023/11/25 03:59:13;;;;;;;10.33;3.27;;;4.20;99.90;;;;;;4920719;29;20032;-74
2023/11/25 04:01:41;;;;;;;5.67;2.20;;;4.10;99.90;;;;;;4921140;29;20118;-74
2023/11/25 04:04:08;;;;;;;4.90;1.60;;;4.20;99.90;;;;;;4920588;29;20020;-74
2023/11/25 04:06:34;;;;;;;5.97;1.57;;;4.10;99.90;;;;;;4937841;29;20396;-74
2023/11/25 04:08:59;;;;;;;5.57;1.20;;;4.10;99.90;;;;;;4938048;29;20027;-74
2023/11/25 04:11:25;;;;;;;7.10;1.00;;;4.10;99.90;;;;;;4937356;29;20040;-74
2023/11/25 04:13:53;;;;;;;3.63;0.97;;;4.00;99.90;;;;;;4938044;29;20103;-73
2023/11/25 04:16:18;;;;;;;1.80;0.57;;;4.00;99.90;;;;;;4920332;29;20059;-74
2023/11/25 04:18:44;;;;;;;2.17;0.60;;;3.90;99.90;;;;;;4920421;29;20480;-73
2023/11/25 04:21:09;;;;;;;2.03;0.80;;;3.90;99.90;;;;;;4936890;29;20039;-75
2023/11/25 04:23:35;;;;;;;4.30;0.53;;;3.80;99.90;;;;;;4937862;29;20107;-73
2023/11/25 04:26:02;;;;;;;3.50;0.60;;;3.80;99.90;;;;;;4937758;29;20024;-74
2023/11/25 04:28:29;;;;;;;2.50;0.40;;;3.80;99.90;;;;;;4937050;29;20461;-73
2023/11/25 04:30:55;;;;;;;2.33;0.87;;;3.80;99.90;;;;;;4920627;29;20034;-73
2023/11/25 04:33:21;;;;;;;2.93;0.50;;;3.80;99.90;;;;;;4920109;29;20028;-74
2023/11/25 04:35:46;;;;;;;2.30;0.83;;;3.80;99.90;;;;;;4937613;29;20027;-74
2023/11/25 04:38:12;;;;;;;6.37;2.17;;;3.70;99.90;;;;;;4937013;29;20527;-74
2023/11/25 04:40:37;;;;;;;8.43;2.67;;;3.70;99.90;;;;;;4937709;29;20032;-73
2023/11/25 04:43:03;;;;;;;5.30;2.40;;;3.70;99.90;;;;;;4937433;29;20031;-74
2023/11/25 04:45:29;;;;;;;7.17;2.47;;;3.70;99.90;;;;;;4937051;29;20050;-73
2023/11/25 04:47:54;;;;;;;7.73;1.93;;;3.60;99.90;;;;;;4920322;29;20464;-74
2023/11/25 04:50:20;;;;;;;3.60;1.67;;;3.60;99.90;;;;;;4919570;29;20433;-73
2023/11/25 04:52:46;;;;;;;2.80;1.10;;;3.70;99.90;;;;;;4920171;29;20118;-74
2023/11/25 04:55:12;;;;;;;3.37;0.90;;;3.70;99.90;;;;;;4919556;29;20390;-74
2023/11/25 04:57:38;;;;;;;2.43;0.80;;;3.70;99.90;;;;;;4937101;29;20054;-73
2023/11/25 05:00:09;;;;;;;7.87;0.80;;;3.70;99.90;;;;;;4920035;29;20473;-74
2023/11/25 05:02:36;;;;;;;1.00;0.60;;;3.70;99.90;;;;;;4919991;29;20114;-74
2023/11/25 05:05:02;;;;;;;2.93;0.60;;;3.70;99.90;;;;;;4919917;29;20039;-73
2023/11/25 05:07:27;;;;;;;3.07;0.70;;;3.80;99.90;;;;;;4919582;29;20027;-74
2023/11/25 05:09:53;;;;;;;2.03;0.60;;;3.70;99.90;;;;;;4936633;29;20396;-74
2023/11/25 05:12:19;;;;;;;1.80;0.50;;;3.70;99.90;;;;;;4919416;29;20082;-74
2023/11/25 05:14:46;;;;;;;0.90;0.50;;;3.80;99.90;;;;;;4936941;29;20020;-74
2023/11/25 05:17:11;;;;;;;1.53;0.50;;;3.80;99.90;;;;;;4919299;29;20031;-74
2023/11/25 05:19:37;;;;;;;0.77;0.40;;;3.80;99.90;;;;;;4919724;29;20370;-74
2023/11/25 05:22:04;;;;;;;1.77;0.50;;;3.80;99.90;;;;;;4936683;29;20058;-74
2023/11/25 05:24:30;;;;;;;4.77;0.73;;;3.90;99.90;;;;;;4936158;29;20482;-74
2023/11/25 05:26:55;;;;;;;1.47;0.67;;;3.90;99.90;;;;;;4936716;29;20031;-74
2023/11/25 05:29:21;;;;;;;2.00;0.57;;;3.90;99.90;;;;;;4936427;29;20369;-74
2023/11/25 05:31:46;;;;;;;0.67;0.50;;;3.90;99.90;;;;;;4918869;29;20082;-74
2023/11/25 05:34:12;;;;;;;2.23;0.50;;;3.80;99.90;;;;;;4919115;29;20123;-74
2023/11/25 05:36:39;;;;;;;2.20;0.63;;;3.80;99.90;;;;;;4919408;29;20038;-74
2023/11/25 05:39:07;;;;;;;2.47;0.60;;;3.80;99.90;;;;;;4919390;29;20392;-74
2023/11/25 05:41:35;;;;;;;3.73;0.63;;;3.80;99.90;;;;;;4918808;29;20082;-74
2023/11/25 05:44:04;;;;;;;5.83;0.40;;;3.70;99.90;;;;;;4919282;29;20075;-74
2023/11/25 05:46:30;;;;;;;4.67;0.60;;;3.80;99.90;;;;;;4918820;29;20118;-74
2023/11/25 05:48:56;;;;;;;5.03;0.60;;;3.80;99.90;;;;;;4919471;29;20448;-74
2023/11/25 05:51:22;;;;;;;4.07;0.60;;;3.80;99.90;;;;;;4918676;29;20072;-74
2023/11/25 05:53:48;;;;;;;0.67;0.43;;;3.80;99.90;;;;;;4919210;29;20464;-74
2023/11/25 05:56:14;;;;;;;1.73;0.60;;;3.80;99.90;;;;;;4918659;29;20039;-74
2023/11/25 05:58:39;;;;;;;2.23;0.60;;;3.80;99.90;;;;;;4919011;29;20439;-74
2023/11/25 06:01:05;;;;;;;2.03;0.70;;;3.80;99.90;;;;;;4918779;29;20031;-73
2023/11/25 06:03:31;;;;;;;1.90;0.40;;;3.80;99.90;;;;;;4918575;29;20031;-73
2023/11/25 06:05:56;;;;;;;1.03;0.63;;;3.80;99.90;;;;;;4918969;29;20361;-74
2023/11/25 06:08:22;;;;;;;5.57;0.87;;;3.80;99.90;;;;;;4918470;29;20035;-74
2023/11/25 06:10:49;;;;;;;3.77;0.60;;;3.90;99.90;;;;;;4935674;29;20409;-74
2023/11/25 06:13:17;;;;;;;3.17;0.70;;;3.80;99.90;;;;;;4935416;29;20027;-74
2023/11/25 06:15:43;;;;;;;3.33;0.70;;;3.80;99.90;;;;;;4935906;29;20479;-74
2023/11/25 06:18:08;;;;;;;1.83;0.63;;;3.80;99.90;;;;;;4918716;29;20036;-74
2023/11/25 06:20:34;;;;;;;4.53;0.87;;;3.80;99.90;;;;;;4935153;29;20103;-74
2023/11/25 06:23:03;;;;;;;0.77;0.47;;;3.80;99.90;;;;;;4935864;29;20108;-73
2023/11/25 06:25:28;;;;;;;1.73;0.60;;;3.80;99.90;;;;;;4918252;29;20461;-74
2023/11/25 06:27:54;;;;;;;3.50;1.10;;;3.80;99.90;;;;;;4935659;29;20090;-74
2023/11/25 06:30:22;;;;;;;3.60;0.80;;;3.80;99.90;;;;;;4918267;29;20083;-74
2023/11/25 06:32:48;;;;;;;3.60;0.67;;;3.80;99.90;;;;;;4918561;29;20031;-74
2023/11/25 06:35:13;;;;;;;3.93;0.80;;;3.80;99.90;;;;;;4918301;29;20036;-74
2023/11/25 06:37:40;;;;;;;2.63;0.97;;;3.80;99.90;;;;;;4935583;29;20058;-74
2023/11/25 06:40:07;;;;;;;5.80;0.80;;;3.80;99.90;;;;;;4918524;29;20417;-74
2023/11/25 06:42:33;;;;;;;2.07;0.77;;;3.80;99.90;;;;;;4936048;29;20039;-74
2023/11/25 06:45:00;;;;;;;6.53;0.70;;;3.80;99.90;;;;;;4939547;29;20031;-74
2023/11/25 06:47:25;;;;;;;4.90;0.90;;;3.80;99.90;;;;;;4939014;29;20027;-74
2023/11/25 06:49:51;;;;;;;1.60;0.60;;;3.80;99.90;;;;;;4921993;29;20032;-73
2023/11/25 06:52:17;;;;;;;0.87;0.47;;;3.80;99.90;;;;;;4921538;29;20024;-74
2023/11/25 06:54:43;;;;;;;3.30;1.23;;;3.80;99.90;;;;;;4922256;29;20038;-73
2023/11/25 06:57:08;;;;;;;2.27;0.60;;;3.80;99.90;;;;;;4922124;29;20028;-74
2023/11/25 06:59:34;;;;;;;5.40;0.63;;;3.70;99.90;;;;;;4921788;29;20115;-75
2023/11/25 07:02:00;;;;;;;2.37;0.60;;;3.70;99.90;;;;;;4939491;29;20054;-75
2023/11/25 07:04:26;;;;;;;4.00;0.70;;;3.70;99.90;;;;;;4921768;29;20170;-75
2023/11/25 07:06:51;;;;;;;1.10;0.50;;;3.60;99.90;;;;;;4922338;29;20028;-74
2023/11/25 07:09:18;;;;;;;2.10;0.80;;;3.60;99.90;;;;;;4921248;29;20028;-75
2023/11/25 07:11:48;;;;;;;1.43;0.80;;;3.50;99.90;;;;;;4921980;29;20126;-74
2023/11/25 07:14:14;;;;;;;4.40;0.73;;;3.50;99.90;;;;;;4921427;29;20035;-83
2023/11/25 07:16:40;;;;;;;1.37;0.80;;;3.50;99.90;;;;;;4938991;29;20059;-74
2023/11/25 07:19:07;;;;;;;2.93;0.90;;;3.50;99.90;;;;;;4921802;29;20141;-73
2023/11/25 07:21:33;;;;;;;1.30;0.70;;;3.50;99.90;;;;;;4925226;29;20043;-74
2023/11/25 07:23:59;;;;;;;2.43;0.93;;;3.50;99.90;;;;;;4938916;29;20496;-74
2023/11/25 07:26:26;;;;;;;4.47;0.90;;;3.50;99.90;;;;;;4937178;29;20023;-74
2023/11/25 07:28:51;;;;;;;3.60;0.60;;;3.50;99.90;;;;;;4937595;29;20040;-73
2023/11/25 07:31:17;;;;;;;5.33;0.80;;;3.50;99.90;;;;;;4938234;29;20027;-74
2023/11/25 07:33:43;;;;;;;6.27;1.27;;;3.50;99.90;;;;;;4937405;29;20024;-74
2023/11/25 07:36:09;;;;;;;3.33;1.00;;;3.50;99.90;;;;;;4938693;29;20027;-73
2023/11/25 07:38:35;;;;;;;2.53;0.97;;;3.40;99.90;;;;;;4936832;29;20035;-74
2023/11/25 07:41:00;;;;;;;6.10;0.80;;;3.40;99.90;;;;;;4938616;29;20039;-73
2023/11/25 07:43:26;;;;;;;5.87;1.40;;;3.40;99.90;;;;;;4938019;29;20068;-74
2023/11/25 07:45:52;;;;;;;2.73;0.90;;;3.50;99.90;;;;;;4938472;29;20062;-74
2023/11/25 07:48:19;;;;;;;6.17;1.20;;;3.50;99.90;;;;;;4936743;29;20031;-75
2023/11/25 07:50:45;;;;;;;5.20;1.00;;;3.50;99.90;;;;;;4937416;29;20036;-74
2023/11/25 07:53:12;;;;;;;3.27;0.60;;;3.50;99.90;;;;;;4937212;29;20046;-74
2023/11/25 07:55:37;;;;;;;2.73;0.83;;;3.60;99.90;;;;;;4935830;29;20110;-74
2023/11/25 07:58:03;;;;;;;2.20;0.80;;;3.60;99.90;;;;;;4937001;29;20122;-74
2023/11/25 08:00:29;;;;;;;4.63;0.80;;;3.70;99.90;;;;;;4936431;29;20483;-74
2023/11/25 08:02:55;;;;;;;3.07;0.77;;;3.80;99.90;;;;;;4936915;29;20039;-74
2023/11/25 08:05:22;;;;;;;5.80;0.90;;;3.80;99.90;;;;;;4936478;29;20038;-75
2023/11/25 08:07:52;;;;;;;3.37;1.00;;;3.90;99.90;;;;;;4938118;29;20028;-74
2023/11/25 08:10:19;;;;;;;4.23;1.07;;;4.00;99.90;;;;;;4937479;29;20042;-76
2023/11/25 08:12:45;;;;;;;6.13;1.00;;;4.00;99.90;;;;;;4936772;29;20032;-74
2023/11/25 08:15:15;;;;;;;4.20;1.33;;;4.10;99.90;;;;;;4937998;29;20354;-74
2023/11/25 08:17:42;;;;;;;4.43;1.07;;;4.10;99.90;;;;;;4936109;29;20127;-75
2023/11/25 08:20:10;;;;;;;5.57;1.40;;;4.10;99.90;;;;;;4936438;29;20035;-75
2023/11/25 08:22:35;;;;;;;3.53;0.93;;;4.10;99.90;;;;;;4935903;29;20107;-75
2023/11/25 08:25:07;;;;;;;7.13;2.03;;;4.10;99.90;;;;;;4937676;29;20032;-75
2023/11/25 08:27:42;;;;;;;7.38;1.13;;;4.20;99.90;;;;;;4935701;29;20087;-75
2023/11/25 08:30:08;;;;;;;5.70;0.97;;;4.10;99.90;;;;;;4936393;29;20087;-74
2023/11/25 08:32:37;;;;;;;2.47;1.17;;;4.10;99.90;;;;;;4937148;29;20083;-75
2023/11/25 08:35:02;;;;;;;4.03;1.23;;;4.10;99.90;;;;;;4937585;29;20034;-74
2023/11/25 08:37:28;;;;;;;3.87;1.23;;;4.10;99.90;;;;;;4937002;29;20110;-75
2023/11/25 08:39:57;;;;;;;4.43;1.00;;;4.10;99.90;;;;;;4936386;29;20040;-74
2023/11/25 08:42:26;;;;;;;5.10;1.30;;;4.20;99.90;;;;;;4935739;29;20082;-74
2023/11/25 08:44:52;;;;;;;4.37;0.97;;;4.20;99.90;;;;;;4937476;29;20032;-73
2023/11/25 08:47:18;;;;;;;5.03;1.27;;;4.20;99.90;;;;;;4936102;29;20058;-73
2023/11/25 08:49:46;;;;;;;3.10;1.20;;;4.30;99.90;;;;;;4936207;29;20441;-74
2023/11/25 08:52:12;;;;;;;7.53;1.87;;;4.40;99.90;;;;;;4936834;29;20035;-73
2023/11/25 08:54:38;;;;;;;8.50;1.30;;;4.50;99.90;;;;;;4936488;29;20039;-73
2023/11/25 08:57:07;;;;;;;4.83;1.60;;;4.60;99.90;;;;;;4935819;29;20031;-74
2023/11/25 08:59:33;;;;;;;9.07;2.03;;;4.60;99.90;;;;;;4936758;29;20046;-73
2023/11/25 09:01:58;;;;;;;11.40;2.60;;;4.70;99.90;;;;;;4935783;29;20474;-74
2023/11/25 09:04:26;;;;;;;4.90;1.27;;;4.70;99.90;;;;;;4936673;29;20028;-73
2023/11/25 09:06:52;;;;;;;5.60;1.60;;;4.70;99.90;;;;;;4934740;29;20429;-73
2023/11/25 09:09:20;;;;;;;7.00;1.70;;;4.70;99.90;;;;;;4935633;29;20470;-73
2023/11/25 09:11:48;;;;;;;6.30;1.90;;;4.60;99.90;;;;;;4935418;29;20032;-74
2023/11/25 09:14:16;;;;;;;4.17;1.53;;;4.60;99.90;;;;;;4935608;29;20028;-74
2023/11/25 09:16:43;;;;;;;5.67;1.37;;;4.60;99.90;;;;;;4936364;29;20114;-73
2023/11/25 09:19:08;;;;;;;2.70;1.20;;;4.70;99.90;;;;;;4935476;29;20102;-73
2023/11/25 09:21:34;;;;;;;7.77;1.80;;;4.70;99.90;;;;;;4934615;29;20500;-74
2023/11/25 09:24:00;;;;;;;3.67;1.63;;;4.70;99.90;;;;;;4935159;29;20040;-73
2023/11/25 09:26:25;;;;;;;5.63;1.90;;;4.70;99.90;;;;;;4935064;29;20118;-74
2023/11/25 09:28:53;;;;;;;7.40;1.50;;;4.80;99.90;;;;;;4935405;29;20070;-74
2023/11/25 09:31:18;;;;;;;5.17;1.37;;;4.80;99.90;;;;;;4935262;29;20079;-74
2023/11/25 09:33:44;;;;;;;5.90;1.60;;;4.80;99.90;;;;;;4935974;29;20031;-74
2023/11/25 09:36:10;;;;;;;10.03;1.73;;;4.90;99.90;;;;;;4935198;29;20461;-73
2023/11/25 09:38:35;;;;;;;6.10;1.77;;;4.90;99.90;;;;;;4934716;29;20067;-74
2023/11/25 09:41:02;;;;;;;9.73;1.60;;;5.00;99.90;;;;;;4936411;29;20031;-73
2023/11/25 09:43:29;;;;;;;3.30;1.30;;;5.00;99.90;;;;;;4934687;29;20086;-74
2023/11/25 09:45:55;;;;;;;6.93;1.40;;;5.00;99.90;;;;;;4935045;29;20547;-73
2023/11/25 09:48:21;;;;;;;5.70;1.47;;;5.00;99.90;;;;;;4934733;29;20171;-74
2023/11/25 09:50:53;;;;;;;12.67;1.60;;;5.00;99.90;;;;;;4935802;29;20059;-75
2023/11/25 09:53:31;;;;;;;4.95;1.10;;;5.10;99.90;;;;;;4936331;29;20055;-73
2023/11/25 09:56:04;;;;;;;9.77;1.70;;;5.10;99.90;;;;;;4935139;29;20043;-74
2023/11/25 09:58:32;;;;;;;11.70;1.87;;;5.00;99.90;;;;;;4934248;29;20038;-74
2023/11/25 10:00:59;;;;;;;5.70;1.20;;;5.10;99.90;;;;;;4934833;29;20038;-73
2023/11/25 10:03:33;;;;;;;7.63;1.70;;;5.00;99.90;;;;;;4934429;29;20105;-75
2023/11/25 10:05:58;;;;;;;6.27;1.30;;;4.90;99.90;;;;;;4935994;29;20098;-74
2023/11/25 10:08:24;;;;;;;7.27;1.40;;;5.00;99.90;;;;;;4935512;29;20123;-84
2023/11/25 10:11:09;;;;;;;6.83;1.60;;;5.00;99.90;;;;;;4935946;29;20465;-74
2023/11/25 10:13:35;;;;;;;5.63;1.47;;;4.90;99.90;;;;;;4934204;29;20059;-74
2023/11/25 10:16:02;;;;;;;10.83;1.70;;;5.00;99.90;;;;;;4934633;29;20028;-74
2023/11/25 10:18:29;;;;;;;5.20;1.83;;;5.00;99.90;;;;;;4933802;29;20126;-74
2023/11/25 10:20:58;;;;;;;7.70;1.93;;;5.00;99.90;;;;;;4934336;29;20039;-74
2023/11/25 10:23:25;;;;;;;3.43;1.40;;;5.00;99.90;;;;;;4950377;29;20062;-73
2023/11/25 10:25:54;;;;;;;12.07;1.90;;;5.00;99.90;;;;;;4953065;29;20082;-74
2023/11/25 10:28:26;;;;;;;7.67;1.57;;;5.00;99.90;;;;;;4953800;29;20389;-74
2023/11/25 10:30:59;;;;;;;7.97;2.65;;;5.00;99.90;;;;;;4953176;29;20029;-74
2023/11/25 10:33:28;;;;;;;6.10;1.50;;;5.10;99.90;;;;;;4952800;29;20433;-82
2023/11/25 10:35:55;;;;;;;6.93;1.90;;;5.00;99.90;;;;;;4953079;29;20027;-74
2023/11/25 10:38:27;;;;;;;6.57;1.80;;;5.00;99.90;;;;;;4950503;29;20385;-74
2023/11/25 10:41:05;;;;;;;9.57;1.93;;;5.00;99.90;;;;;;4954272;28;20024;-74
2023/11/25 10:43:32;;;;;;;6.70;1.43;;;5.10;99.90;;;;;;4952546;29;20102;-74
2023/11/25 10:46:05;;;;;;;10.67;1.50;;;5.10;99.90;;;;;;4952887;29;20110;-74
2023/11/25 10:48:32;;;;;;;7.57;1.70;;;5.10;99.90;;;;;;4952508;29;20433;-74
2023/11/25 10:50:58;;;;;;;7.50;1.73;;;5.00;99.90;;;;;;4952360;29;20038;-74
2023/11/25 10:53:29;;;;;;;7.53;1.80;;;5.00;99.90;;;;;;4954254;28;20031;-74
2023/11/25 10:55:56;;;;;;;8.73;1.50;;;5.10;99.90;;;;;;4953460;29;20035;-74
2023/11/25 10:58:22;;;;;;;4.37;1.33;;;5.10;99.90;;;;;;4953055;29;20039;-77
2023/11/25 11:00:50;;;;;;;6.33;2.13;;;5.10;99.90;;;;;;4952300;29;20035;-74
2023/11/25 11:03:28;;;;;;;8.53;1.80;;;5.10;99.90;;;;;;4954047;28;20019;-74
2023/11/25 11:06:01;;;;;;;10.47;1.70;;;5.10;99.90;;;;;;4951108;29;20035;-74
2023/11/25 11:08:32;;;;;;;11.80;2.10;;;5.10;99.90;;;;;;4952287;29;20027;-74
2023/11/25 11:11:13;;;;;;;9.50;1.57;;;5.10;99.90;;;;;;4952857;29;20019;-74
2023/11/25 11:13:42;;;;;;;5.40;1.60;;;5.10;99.90;;;;;;4952749;29;20031;-73
2023/11/25 11:16:19;;;;;;;5.47;2.07;;;5.10;99.90;;;;;;4954161;28;20027;-74
2023/11/25 11:18:45;;;;;;;9.00;1.93;;;5.10;99.90;;;;;;4953627;28;20110;-74
2023/11/25 11:21:15;;;;;;;8.57;1.50;;;5.10;99.90;;;;;;4947039;28;20055;-74
2023/11/25 11:23:41;;;;;;;6.90;1.50;;;5.10;99.90;;;;;;4918377;29;20091;-73
2023/11/25 11:26:38;;;;;;;10.60;1.50;;;5.10;99.90;;;;;;4934051;29;20055;-73
2023/11/25 11:29:28;;;;;;;6.07;1.47;;;5.20;99.90;;;;;;4901253;29;20465;-75
2023/11/25 11:32:00;;;;;;;6.73;1.80;;;5.20;99.90;;;;;;4937739;29;20031;-73
2023/11/25 11:34:31;;;;;;;12.07;1.93;;;5.20;99.90;;;;;;4920797;29;20034;-78
2023/11/25 11:36:58;;;;;;;12.10;1.97;;;5.30;99.90;;;;;;4937983;29;20083;-73
2023/11/25 11:39:51;;;;;;;12.00;2.30;;;5.30;99.90;;;;;;4938044;29;20747;-73
2023/11/25 11:42:25;;;;;;;6.13;1.20;;;5.30;99.90;;;;;;4921012;29;20026;-73
2023/11/25 11:45:14;;;;;;;5.50;1.80;;;5.40;99.90;;;;;;4937356;29;20027;-73
2023/11/25 11:47:40;;;;;;;15.27;2.07;;;5.40;99.90;;;;;;4920202;29;20035;-73
2023/11/25 11:50:10;;;;;;;8.73;1.40;;;5.40;99.90;;;;;;4937416;29;20078;-73
2023/11/25 11:52:59;;;;;;;8.37;1.83;;;5.40;99.90;;;;;;4920248;29;20032;-73
2023/11/25 11:55:40;;;;;;;15.03;2.27;;;5.40;99.90;;;;;;4912644;29;20386;-73
2023/11/25 11:58:17;;;;;;;7.15;1.33;;;5.40;99.90;;;;;;4920439;29;20174;-73
2023/11/25 12:00:53;;;;;;;8.40;1.57;;;5.40;99.90;;;;;;4920130;29;20040;-76
2023/11/25 12:03:19;;;;;;;5.77;2.00;;;5.40;99.90;;;;;;4920748;29;20031;-73
2023/11/25 12:05:45;;;;;;;8.80;1.50;;;5.40;99.90;;;;;;4920127;29;20024;-72
2023/11/25 12:08:11;;;;;;;9.27;2.23;;;5.40;99.90;;;;;;4920319;29;20035;-73
2023/11/25 12:10:38;;;;;;;9.30;2.20;;;5.50;99.90;;;;;;4937138;29;20031;-73
2023/11/25 12:13:04;;;;;;;6.17;1.90;;;5.50;99.90;;;;;;4920363;29;20038;-73
2023/11/25 12:15:31;;;;;;;9.80;2.20;;;5.50;99.90;;;;;;4919884;29;20568;-73
2023/11/25 12:17:57;;;;;;;10.77;2.87;;;5.50;99.90;;;;;;4922738;29;20027;-74
2023/11/25 12:20:23;;;;;;;11.87;2.07;;;5.50;99.90;;;;;;4925734;29;20470;-73
2023/11/25 12:22:48;;;;;;;8.37;2.03;;;5.50;99.90;;;;;;4936923;29;20064;-73
2023/11/25 12:25:18;;;;;;;10.70;2.20;;;5.50;99.90;;;;;;4924881;29;20107;-73
2023/11/25 12:27:58;;;;;;;6.53;2.10;;;5.50;99.90;;;;;;4936613;29;20034;-73
2023/11/25 12:30:26;;;;;;;16.13;2.43;;;5.50;99.90;;;;;;4936901;29;20126;-74
2023/11/25 12:32:51;;;;;;;9.60;1.83;;;5.50;99.90;;;;;;4937421;29;20469;-74
2023/11/25 12:35:17;;;;;;;10.90;1.70;;;5.50;99.90;;;;;;4920129;29;20032;-73
2023/11/25 12:37:42;;;;;;;13.73;1.87;;;5.50;99.90;;;;;;4936527;29;20411;-73
2023/11/25 12:40:22;;;;;;;7.70;1.80;;;5.50;99.90;;;;;;4936407;29;20043;-73
2023/11/25 12:42:49;;;;;;;8.30;1.80;;;5.40;99.90;;;;;;4935705;29;20469;-73
2023/11/25 12:45:36;;;;;;;8.07;2.00;;;5.40;99.90;;;;;;4928592;29;20462;-74
2023/11/25 12:48:04;;;;;;;7.10;1.70;;;5.40;99.90;;;;;;4923917;29;20118;-74
2023/11/25 12:50:30;;;;;;;6.90;1.50;;;5.40;99.90;;;;;;4918882;29;20038;-75
2023/11/25 12:53:09;;;;;;;12.53;1.80;;;5.50;99.90;;;;;;4936142;29;20035;-74
2023/11/25 12:55:40;;;;;;;6.37;1.50;;;5.50;99.90;;;;;;4919128;29;20503;-74
2023/11/25 12:58:17;;;;;;;8.67;1.80;;;5.50;99.90;;;;;;4919449;29;20079;-73